Time;durP1;ratioP1;P1;durP2;ratioP2;P2;SDS_P1;SDS_P2;PMS_P1;PMS_P2;Temp;Humidity;BMP_temperature;BMP_pressure;BME280_temperature;BME280_humidity;BME280_pressure;Samples;Min_cycle;Max_cycle;Signal;HPM_P1;HPM_P2
2023/02/03 00:01:52;;;;;;;1.20;1.10;;;4.80;99.90;;;;;;5072960;28;20197;-69
2023/02/03 00:04:18;;;;;;;0.80;0.80;;;4.80;99.90;;;;;;5072235;28;20220;-69
2023/02/03 00:06:46;;;;;;;1.13;0.90;;;4.80;99.90;;;;;;5072592;28;20228;-69
2023/02/03 00:09:13;;;;;;;1.10;1.00;;;4.70;99.90;;;;;;5072108;28;20702;-70
2023/02/03 00:11:40;;;;;;;2.88;1.63;;;4.70;99.90;;;;;;5072190;28;20236;-69
2023/02/03 00:14:08;;;;;;;1.30;1.05;;;4.70;99.90;;;;;;5072357;28;20196;-69
2023/02/03 00:16:35;;;;;;;1.88;0.95;;;4.70;99.90;;;;;;5072016;28;20230;-69
2023/02/03 00:19:02;;;;;;;0.90;0.80;;;4.70;99.90;;;;;;5071774;28;20204;-69
2023/02/03 00:21:29;;;;;;;1.10;0.85;;;4.70;99.90;;;;;;5071837;28;20242;-69
2023/02/03 00:23:55;;;;;;;1.00;0.88;;;4.60;99.90;;;;;;5071975;28;20727;-69
2023/02/03 00:26:23;;;;;;;1.08;0.98;;;4.70;99.90;;;;;;5072000;28;20216;-69
2023/02/03 00:28:50;;;;;;;1.65;1.00;;;4.70;99.90;;;;;;5071374;28;20316;-68
2023/02/03 00:31:21;;;;;;;1.45;0.73;;;4.70;99.90;;;;;;5071634;28;20208;-68
2023/02/03 00:33:48;;;;;;;1.30;1.17;;;4.80;99.90;;;;;;5071920;28;20224;-68
2023/02/03 00:36:15;;;;;;;1.17;1.00;;;4.80;99.90;;;;;;5071983;28;20243;-68
2023/02/03 00:38:42;;;;;;;1.27;1.00;;;4.80;99.90;;;;;;5071625;28;20291;-68
2023/02/03 00:41:08;;;;;;;1.50;1.00;;;4.70;99.90;;;;;;5072327;28;20286;-70
2023/02/03 00:43:35;;;;;;;1.00;0.90;;;4.70;99.90;;;;;;5071564;28;20228;-69
2023/02/03 00:46:02;;;;;;;0.80;0.70;;;4.70;99.90;;;;;;5071648;28;20227;-69
2023/02/03 00:48:30;;;;;;;1.10;0.90;;;4.70;99.90;;;;;;5071168;28;20375;-69
2023/02/03 00:50:56;;;;;;;1.55;1.10;;;4.60;99.90;;;;;;5072223;28;20208;-68
2023/02/03 00:53:23;;;;;;;0.90;0.88;;;4.60;99.90;;;;;;5071385;28;20694;-68
2023/02/03 00:55:50;;;;;;;1.00;0.75;;;4.70;99.90;;;;;;5071109;28;20239;-68
2023/02/03 00:58:17;;;;;;;0.98;0.88;;;4.70;99.90;;;;;;5071291;28;20200;-69
2023/02/03 01:00:44;;;;;;;1.23;0.90;;;4.70;99.90;;;;;;5071694;28;20209;-68
2023/02/03 01:03:11;;;;;;;1.05;0.88;;;4.70;99.90;;;;;;5071584;28;20212;-68
2023/02/03 01:05:39;;;;;;;1.00;0.90;;;4.70;99.90;;;;;;5070767;28;20592;-68
2023/02/03 01:08:06;;;;;;;1.00;0.90;;;4.70;99.90;;;;;;5071708;28;20674;-68
2023/02/03 01:10:32;;;;;;;1.17;1.00;;;4.70;99.90;;;;;;5070989;28;20203;-71
2023/02/03 01:12:59;;;;;;;1.23;1.00;;;4.70;99.90;;;;;;5071565;28;20526;-68
2023/02/03 01:15:26;;;;;;;0.90;0.80;;;4.70;99.90;;;;;;5071307;28;20217;-68
2023/02/03 01:17:53;;;;;;;0.80;0.80;;;4.70;99.90;;;;;;5071542;28;20211;-68
2023/02/03 01:20:20;;;;;;;1.10;1.00;;;4.70;99.90;;;;;;5070597;28;20565;-68
2023/02/03 01:22:48;;;;;;;1.48;1.00;;;4.70;99.90;;;;;;5071194;28;20311;-68
2023/02/03 01:25:15;;;;;;;1.15;0.95;;;4.70;99.90;;;;;;5071127;28;20220;-68
2023/02/03 01:27:42;;;;;;;2.00;1.13;;;4.70;99.90;;;;;;5071167;28;20203;-68
2023/02/03 01:30:10;;;;;;;1.02;0.93;;;4.60;99.90;;;;;;5070784;28;20204;-68
2023/02/03 01:32:36;;;;;;;1.98;1.00;;;4.60;99.90;;;;;;5071170;28;20208;-69
2023/02/03 01:35:03;;;;;;;1.75;1.10;;;4.70;99.90;;;;;;5071032;28;20200;-69
2023/02/03 01:37:30;;;;;;;1.05;0.95;;;4.70;99.90;;;;;;5070957;28;20205;-68
2023/02/03 01:39:58;;;;;;;1.00;0.85;;;4.70;99.90;;;;;;5070559;28;20204;-68
2023/02/03 01:42:24;;;;;;;1.33;0.95;;;4.70;99.90;;;;;;5070933;28;20610;-68
2023/02/03 01:44:52;;;;;;;1.10;1.00;;;4.70;99.90;;;;;;5070962;28;20227;-68
2023/02/03 01:47:25;;;;;;;1.00;0.90;;;4.70;99.90;;;;;;5070860;28;20224;-68
2023/02/03 01:49:58;;;;;;;1.00;0.88;;;4.70;99.90;;;;;;5070428;28;20196;-68
2023/02/03 01:52:25;;;;;;;0.93;0.82;;;4.70;99.90;;;;;;5070751;28;20212;-68
2023/02/03 01:54:56;;;;;;;1.00;0.90;;;4.70;99.90;;;;;;5070849;28;20249;-68
2023/02/03 01:57:28;;;;;;;1.23;1.10;;;4.70;99.90;;;;;;5070857;28;20228;-69
2023/02/03 01:59:57;;;;;;;1.20;1.10;;;4.80;99.90;;;;;;5070344;28;20201;-68
2023/02/03 02:02:24;;;;;;;0.88;0.85;;;4.80;99.90;;;;;;5070531;28;20203;-68
2023/02/03 02:04:57;;;;;;;2.20;1.17;;;4.70;99.90;;;;;;5070680;28;20599;-68
2023/02/03 02:07:25;;;;;;;3.75;1.40;;;4.70;99.90;;;;;;5070267;28;20224;-68
2023/02/03 02:09:51;;;;;;;1.50;1.10;;;4.70;99.90;;;;;;5070233;28;20204;-68
2023/02/03 02:12:18;;;;;;;1.42;1.30;;;4.70;99.90;;;;;;5070374;28;20206;-68
2023/02/03 02:14:47;;;;;;;4.53;1.23;;;4.80;99.90;;;;;;5070644;28;20563;-68
2023/02/03 02:17:35;;;;;;;1.17;1.08;;;4.80;99.90;;;;;;5070086;28;20220;-69
2023/02/03 02:20:29;;;;;;;1.30;1.20;;;4.80;99.90;;;;;;5070042;28;20208;-68
2023/02/03 02:23:28;;;;;;;1.45;1.10;;;4.80;99.90;;;;;;5070500;28;20694;-68
2023/02/03 02:26:37;;;;;;;1.15;1.05;;;4.80;99.90;;;;;;5052559;28;20232;-68
2023/02/03 02:29:19;;;;;;;2.13;1.10;;;4.80;99.90;;;;;;5069894;28;20211;-68
2023/02/03 02:32:05;;;;;;;1.10;1.00;;;4.80;99.90;;;;;;5070448;28;20201;-69
2023/02/03 02:34:45;;;;;;;1.42;1.33;;;4.70;99.90;;;;;;5070166;28;20215;-68
2023/02/03 02:37:23;;;;;;;1.40;1.30;;;4.80;99.90;;;;;;5070226;28;20603;-68
2023/02/03 02:39:57;;;;;;;1.20;1.10;;;4.80;99.90;;;;;;5069783;28;20204;-68
2023/02/03 02:42:30;;;;;;;1.40;1.30;;;4.80;99.90;;;;;;5070104;28;20271;-68
2023/02/03 02:45:05;;;;;;;1.20;1.08;;;4.80;99.90;;;;;;5070235;28;20306;-68
2023/02/03 02:47:33;;;;;;;1.25;1.13;;;4.80;99.90;;;;;;5070169;28;20199;-68
2023/02/03 02:50:05;;;;;;;1.40;1.30;;;4.80;99.90;;;;;;5069677;28;20200;-69
2023/02/03 02:52:36;;;;;;;2.00;1.38;;;4.70;99.90;;;;;;5070053;28;20227;-68
2023/02/03 02:55:10;;;;;;;1.38;1.27;;;4.70;99.90;;;;;;5070197;28;20226;-68
2023/02/03 02:57:39;;;;;;;1.60;1.20;;;4.60;99.90;;;;;;5070186;28;20560;-68
2023/02/03 03:00:07;;;;;;;1.50;1.40;;;4.60;99.90;;;;;;5069620;28;20200;-68
2023/02/03 03:02:36;;;;;;;7.18;1.20;;;4.60;99.90;;;;;;5069903;28;20564;-68
2023/02/03 03:05:05;;;;;;;1.38;1.27;;;4.60;99.90;;;;;;5069983;28;20227;-68
2023/02/03 03:07:36;;;;;;;1.02;0.93;;;4.60;99.90;;;;;;5069854;28;20208;-68
2023/02/03 03:10:09;;;;;;;1.48;1.10;;;4.60;99.90;;;;;;5069661;28;20209;-68
2023/02/03 03:12:41;;;;;;;1.13;1.02;;;4.70;99.90;;;;;;5069937;28;20207;-68
2023/02/03 03:15:14;;;;;;;1.38;1.08;;;4.70;99.90;;;;;;5070025;28;20207;-68
2023/02/03 03:17:45;;;;;;;1.30;1.10;;;4.80;99.90;;;;;;5070114;28;20690;-68
2023/02/03 03:20:15;;;;;;;1.35;1.25;;;4.80;99.90;;;;;;5069205;28;20204;-68
2023/02/03 03:22:47;;;;;;;1.17;0.90;;;4.80;99.90;;;;;;5069937;28;20201;-68
2023/02/03 03:25:17;;;;;;;1.67;0.88;;;4.80;99.90;;;;;;5069664;28;20232;-68
2023/02/03 03:27:49;;;;;;;1.02;0.80;;;4.80;99.90;;;;;;5070048;28;20204;-68
2023/02/03 03:30:20;;;;;;;0.93;0.82;;;4.80;99.90;;;;;;5072905;28;20200;-68
2023/02/03 03:32:49;;;;;;;1.25;1.00;;;4.80;99.90;;;;;;5073496;28;20196;-68
2023/02/03 03:35:16;;;;;;;1.90;1.30;;;4.80;99.90;;;;;;5073122;28;20599;-68
2023/02/03 03:37:46;;;;;;;0.93;0.80;;;4.70;99.90;;;;;;5073558;28;20200;-68
2023/02/03 03:40:20;;;;;;;2.50;0.85;;;4.70;99.90;;;;;;5072737;28;20204;-68
2023/02/03 03:42:50;;;;;;;1.77;0.90;;;4.70;99.90;;;;;;5073214;28;20667;-68
2023/02/03 03:45:24;;;;;;;1.63;1.00;;;4.70;99.90;;;;;;5072990;28;20226;-68
2023/02/03 03:47:56;;;;;;;1.10;0.90;;;4.60;99.90;;;;;;5073413;28;20600;-69
2023/02/03 03:50:27;;;;;;;1.10;1.00;;;4.70;99.90;;;;;;5072471;28;20200;-69
2023/02/03 03:52:57;;;;;;;1.50;1.17;;;4.70;99.90;;;;;;5073209;28;20196;-68
2023/02/03 03:55:25;;;;;;;1.10;1.00;;;4.60;99.90;;;;;;5072772;28;20715;-68
2023/02/03 03:57:55;;;;;;;1.05;0.95;;;4.60;99.90;;;;;;5073122;28;20200;-68
2023/02/03 04:00:25;;;;;;;1.52;1.42;;;4.60;99.90;;;;;;5072333;28;20200;-68
2023/02/03 04:02:56;;;;;;;2.45;1.00;;;4.60;99.90;;;;;;5072937;28;20212;-68
2023/02/03 04:05:24;;;;;;;1.23;1.10;;;4.60;99.90;;;;;;5072693;28;20231;-68
2023/02/03 04:07:50;;;;;;;1.15;0.90;;;4.50;99.90;;;;;;5072955;28;20578;-68
2023/02/03 04:10:25;;;;;;;1.30;1.10;;;4.50;99.90;;;;;;5072181;28;20208;-68
2023/02/03 04:12:51;;;;;;;1.75;1.02;;;4.50;99.90;;;;;;5072872;28;20580;-68
2023/02/03 04:15:18;;;;;;;1.45;0.90;;;4.60;99.90;;;;;;5072483;28;20207;-69
2023/02/03 04:17:45;;;;;;;1.20;0.90;;;4.60;99.90;;;;;;5072718;28;20204;-68
2023/02/03 04:20:14;;;;;;;1.20;1.05;;;4.60;99.90;;;;;;5071802;28;20204;-68
2023/02/03 04:22:40;;;;;;;1.15;1.05;;;4.60;99.90;;;;;;5072643;28;20200;-68
2023/02/03 04:25:08;;;;;;;1.20;1.10;;;4.60;99.90;;;;;;5072245;28;20212;-69
2023/02/03 04:27:35;;;;;;;0.80;0.70;;;4.50;99.90;;;;;;5072364;28;20567;-68
2023/02/03 04:30:02;;;;;;;1.00;0.90;;;4.50;99.90;;;;;;5071836;28;20204;-68
2023/02/03 04:32:30;;;;;;;1.10;0.80;;;4.50;99.90;;;;;;5071993;28;20201;-68
2023/02/03 04:34:57;;;;;;;2.70;0.90;;;4.50;99.90;;;;;;5081763;28;20257;-69
2023/02/03 04:37:26;;;;;;;1.40;1.05;;;4.50;99.90;;;;;;5089759;28;20223;-70
2023/02/03 04:39:52;;;;;;;0.93;0.77;;;4.50;99.90;;;;;;5089626;28;20234;-70
2023/02/03 04:42:19;;;;;;;1.77;1.10;;;4.50;99.90;;;;;;5089487;28;20206;-70
2023/02/03 04:44:46;;;;;;;1.00;0.90;;;4.40;99.90;;;;;;5090150;28;20218;-70
2023/02/03 04:47:13;;;;;;;1.20;1.00;;;4.40;99.90;;;;;;5092197;28;20227;-70
2023/02/03 04:49:40;;;;;;;0.90;0.80;;;4.40;99.90;;;;;;5091833;28;20226;-70
2023/02/03 04:52:07;;;;;;;1.40;0.98;;;4.40;99.90;;;;;;5091711;28;20199;-70
2023/02/03 04:54:35;;;;;;;1.00;0.90;;;4.40;99.90;;;;;;5091451;28;20204;-70
2023/02/03 04:57:02;;;;;;;1.05;0.98;;;4.30;99.90;;;;;;5090219;28;20220;-70
2023/02/03 04:59:29;;;;;;;1.80;1.00;;;4.30;99.90;;;;;;5090245;28;20670;-70
2023/02/03 05:01:56;;;;;;;0.95;0.85;;;4.40;99.90;;;;;;5092103;28;20200;-70
2023/02/03 05:04:22;;;;;;;1.20;0.90;;;4.40;99.90;;;;;;5092001;28;20582;-70
2023/02/03 05:06:50;;;;;;;1.15;1.05;;;4.30;99.90;;;;;;5092060;28;20220;-70
2023/02/03 05:09:17;;;;;;;2.50;1.13;;;4.30;99.90;;;;;;5091742;28;20214;-70
2023/02/03 05:11:45;;;;;;;1.73;1.15;;;4.30;99.90;;;;;;5092480;28;20203;-70
2023/02/03 05:14:11;;;;;;;2.15;1.10;;;4.40;99.90;;;;;;5091643;28;20200;-70
2023/02/03 05:16:38;;;;;;;1.10;0.82;;;4.40;99.90;;;;;;5091631;28;20595;-70
2023/02/03 05:19:05;;;;;;;0.90;0.80;;;4.40;99.90;;;;;;5091319;28;20199;-69
2023/02/03 05:21:32;;;;;;;1.85;1.35;;;4.40;99.90;;;;;;5091469;28;20212;-70
2023/02/03 05:23:59;;;;;;;1.30;1.20;;;4.40;99.90;;;;;;5090999;28;20456;-69
2023/02/03 05:26:26;;;;;;;1.15;0.88;;;4.40;99.90;;;;;;5091247;28;20952;-69
2023/02/03 05:28:54;;;;;;;1.20;1.10;;;4.50;99.90;;;;;;5091366;28;20547;-69
2023/02/03 05:31:20;;;;;;;1.92;1.25;;;4.50;99.90;;;;;;5090546;28;20202;-69
2023/02/03 05:33:47;;;;;;;1.00;0.80;;;4.60;99.90;;;;;;5091037;28;20199;-69
2023/02/03 05:36:14;;;;;;;1.45;1.00;;;4.60;99.90;;;;;;5089691;28;20706;-69
2023/02/03 05:38:41;;;;;;;2.25;1.13;;;4.60;99.90;;;;;;5090879;28;20202;-69
2023/02/03 05:43:54;;;;;;;1.08;0.90;;;4.70;99.90;;;;;;5091467;28;20690;-69
2023/02/03 05:46:21;;;;;;;1.02;0.93;;;4.80;99.90;;;;;;5090963;28;20239;-69
2023/02/03 05:48:48;;;;;;;0.98;0.90;;;4.70;99.90;;;;;;5090753;28;20199;-69
2023/02/03 05:51:15;;;;;;;1.08;0.98;;;4.80;99.90;;;;;;5090739;28;20275;-69
2023/02/03 05:53:41;;;;;;;2.15;0.95;;;4.80;99.90;;;;;;5091035;28;20204;-69
2023/02/03 05:56:08;;;;;;;1.27;0.80;;;4.80;99.90;;;;;;5091065;28;20219;-69
2023/02/03 05:58:35;;;;;;;1.80;1.23;;;4.70;99.90;;;;;;5090417;28;20225;-70
2023/02/03 06:01:03;;;;;;;1.40;1.17;;;4.70;99.90;;;;;;5091271;28;20199;-68
2023/02/03 06:03:30;;;;;;;1.00;0.90;;;4.70;99.90;;;;;;5090742;28;20207;-68
2023/02/03 06:05:57;;;;;;;1.27;1.17;;;4.70;99.90;;;;;;5090807;28;20231;-67
2023/02/03 06:08:27;;;;;;;1.65;1.00;;;4.80;99.90;;;;;;5090174;28;20234;-67
2023/02/03 06:10:57;;;;;;;1.42;1.20;;;4.80;99.90;;;;;;5090988;28;20199;-68
2023/02/03 06:13:24;;;;;;;1.23;1.13;;;4.80;99.90;;;;;;5090627;28;20203;-68
2023/02/03 06:15:51;;;;;;;1.50;0.95;;;4.70;99.90;;;;;;5090792;28;20216;-68
2023/02/03 06:18:19;;;;;;;0.90;0.80;;;4.70;99.90;;;;;;5090169;28;20627;-68
2023/02/03 06:20:45;;;;;;;0.93;0.80;;;4.70;99.90;;;;;;5090696;28;20218;-68
2023/02/03 06:23:12;;;;;;;1.80;1.10;;;4.70;99.90;;;;;;5090718;28;20203;-68
2023/02/03 06:25:39;;;;;;;1.42;0.90;;;4.70;99.90;;;;;;5090581;28;20229;-68
2023/02/03 06:28:06;;;;;;;0.90;0.80;;;4.70;99.90;;;;;;5090963;28;20227;-68
2023/02/03 06:30:32;;;;;;;2.25;1.10;;;4.70;99.90;;;;;;5089871;28;20200;-68
2023/02/03 06:32:59;;;;;;;1.65;1.00;;;4.70;99.90;;;;;;5090845;28;20203;-68
2023/02/03 06:35:27;;;;;;;0.80;0.75;;;4.70;99.90;;;;;;5090360;28;20227;-68
2023/02/03 06:37:54;;;;;;;0.98;0.88;;;4.70;99.90;;;;;;5090561;28;20210;-68
2023/02/03 06:40:21;;;;;;;0.80;0.70;;;4.60;99.90;;;;;;5089935;28;20289;-68
2023/02/03 06:42:49;;;;;;;1.48;1.20;;;4.60;99.90;;;;;;5090640;28;20199;-68
2023/02/03 06:45:17;;;;;;;1.00;0.80;;;4.60;99.90;;;;;;5090270;28;20211;-68
2023/02/03 06:47:45;;;;;;;0.77;0.70;;;4.60;99.90;;;;;;5090591;28;20203;-69
2023/02/03 06:50:14;;;;;;;1.30;1.10;;;4.60;99.90;;;;;;5089984;28;20208;-68
2023/02/03 06:52:42;;;;;;;1.10;1.00;;;4.50;99.90;;;;;;5090421;28;20208;-68
2023/02/03 06:55:09;;;;;;;1.30;1.20;;;4.50;99.90;;;;;;5090631;28;20207;-68
2023/02/03 06:57:43;;;;;;;3.03;1.33;;;4.50;99.90;;;;;;5090302;28;20663;-68
2023/02/03 07:00:12;;;;;;;1.90;1.05;;;4.50;99.90;;;;;;5089507;28;20207;-69
2023/02/03 07:02:38;;;;;;;1.30;1.17;;;4.40;99.90;;;;;;5087414;28;20199;-69
2023/02/03 07:05:06;;;;;;;2.10;1.08;;;4.40;99.90;;;;;;5092929;28;20200;-69
2023/02/03 07:07:33;;;;;;;1.10;1.00;;;4.40;99.90;;;;;;5092881;28;20230;-68
2023/02/03 07:10:01;;;;;;;1.60;1.30;;;4.40;99.90;;;;;;5091659;28;20204;-69
2023/02/03 07:12:28;;;;;;;0.80;0.80;;;4.40;99.90;;;;;;5093522;28;20199;-69
2023/02/03 07:14:55;;;;;;;1.90;1.10;;;4.40;99.90;;;;;;5094288;28;20203;-69
2023/02/03 07:17:21;;;;;;;0.82;0.82;;;4.40;99.90;;;;;;5094120;28;20215;-69
2023/02/03 07:19:48;;;;;;;1.25;1.05;;;4.30;99.90;;;;;;5093765;28;20575;-69
2023/02/03 07:22:15;;;;;;;1.50;1.35;;;4.40;99.90;;;;;;5094114;28;20211;-69
2023/02/03 07:24:41;;;;;;;1.77;1.17;;;4.40;99.90;;;;;;5094174;28;20571;-69
2023/02/03 07:27:09;;;;;;;1.00;0.93;;;4.40;99.90;;;;;;5094174;28;20223;-69
2023/02/03 07:29:36;;;;;;;1.20;1.10;;;4.40;99.90;;;;;;5093636;28;20204;-69
2023/02/03 07:32:03;;;;;;;1.10;1.00;;;4.40;99.90;;;;;;5094118;28;20223;-69
2023/02/03 07:34:30;;;;;;;1.10;1.00;;;4.30;99.90;;;;;;5093895;28;20211;-69
2023/02/03 07:36:57;;;;;;;2.58;1.55;;;4.40;99.90;;;;;;5094034;28;20219;-69
2023/02/03 07:39:23;;;;;;;2.20;1.35;;;4.40;99.90;;;;;;5093454;28;20203;-69
2023/02/03 07:41:50;;;;;;;2.85;1.48;;;4.50;99.90;;;;;;5094014;28;20618;-69
2023/02/03 07:44:18;;;;;;;1.10;1.00;;;4.40;99.90;;;;;;5093637;28;20203;-69
2023/02/03 07:46:45;;;;;;;1.40;1.30;;;4.40;99.90;;;;;;5093865;28;20602;-69
2023/02/03 07:49:12;;;;;;;2.42;1.40;;;4.40;99.90;;;;;;5093422;28;20203;-69
2023/02/03 07:51:38;;;;;;;1.50;1.40;;;4.50;99.90;;;;;;5093543;28;20196;-69
2023/02/03 07:54:05;;;;;;;1.50;1.33;;;4.50;99.90;;;;;;5093668;28;20203;-69
2023/02/03 07:56:32;;;;;;;1.40;1.30;;;4.50;99.90;;;;;;5093390;28;20220;-68
2023/02/03 07:58:59;;;;;;;1.58;1.30;;;4.50;99.90;;;;;;5093021;28;20206;-69
2023/02/03 08:01:28;;;;;;;1.30;1.00;;;4.50;99.90;;;;;;5093240;28;20608;-69
2023/02/03 08:03:55;;;;;;;1.30;1.20;;;4.50;99.90;;;;;;5093467;28;20226;-69
2023/02/03 08:06:21;;;;;;;1.80;1.20;;;4.50;99.90;;;;;;5093118;28;20709;-69
2023/02/03 08:08:48;;;;;;;1.88;1.45;;;4.50;99.90;;;;;;5092925;28;20544;-69
2023/02/03 08:11:15;;;;;;;1.20;1.10;;;4.50;99.90;;;;;;5081102;28;20204;-68
2023/02/03 08:13:42;;;;;;;2.20;1.95;;;4.50;99.90;;;;;;5078401;28;20224;-69
2023/02/03 08:16:08;;;;;;;1.27;1.13;;;4.50;99.90;;;;;;5072563;28;20311;-69
2023/02/03 08:18:36;;;;;;;2.25;1.65;;;4.50;99.90;;;;;;5075648;28;20235;-69
2023/02/03 08:21:04;;;;;;;1.60;1.48;;;4.50;99.90;;;;;;5093009;28;20208;-69
2023/02/03 08:23:30;;;;;;;1.15;1.05;;;4.50;99.90;;;;;;5092244;28;20215;-69
2023/02/03 08:25:58;;;;;;;1.80;1.33;;;4.60;99.90;;;;;;5092208;28;20224;-69
2023/02/03 08:28:25;;;;;;;1.83;1.17;;;4.60;99.90;;;;;;5092174;28;20204;-69
2023/02/03 08:30:51;;;;;;;1.48;1.30;;;4.70;99.90;;;;;;5092922;28;20211;-68
2023/02/03 08:33:18;;;;;;;1.40;1.30;;;4.80;99.90;;;;;;5091864;28;20196;-68
2023/02/03 08:35:49;;;;;;;1.50;1.38;;;4.80;99.90;;;;;;5092723;28;20223;-68
2023/02/03 08:38:16;;;;;;;4.80;2.00;;;4.80;99.90;;;;;;5091968;28;20225;-68
2023/02/03 08:40:43;;;;;;;1.80;1.38;;;4.70;99.90;;;;;;5092374;28;20204;-70
2023/02/03 08:43:10;;;;;;;3.35;1.63;;;4.70;99.90;;;;;;5092404;28;20646;-70
2023/02/03 08:45:36;;;;;;;3.35;1.35;;;4.80;99.90;;;;;;5092541;28;20228;-70
2023/02/03 08:48:03;;;;;;;1.50;1.20;;;4.80;99.90;;;;;;5092187;28;20223;-70
2023/02/03 08:50:30;;;;;;;1.17;1.08;;;4.80;99.90;;;;;;5091407;28;20203;-70
2023/02/03 08:52:58;;;;;;;1.63;1.45;;;4.70;99.90;;;;;;5092420;28;20195;-71
2023/02/03 08:55:25;;;;;;;1.50;1.40;;;4.70;99.90;;;;;;5091914;28;20706;-70
2023/02/03 08:57:51;;;;;;;2.25;1.40;;;4.80;99.90;;;;;;5092509;28;20576;-70
2023/02/03 09:00:20;;;;;;;1.40;1.30;;;4.90;99.90;;;;;;5092081;28;20210;-70
2023/02/03 09:02:46;;;;;;;1.20;1.10;;;4.90;99.90;;;;;;5091254;28;20254;-69
2023/02/03 09:05:16;;;;;;;3.15;1.50;;;4.90;99.90;;;;;;5091877;28;20210;-68
2023/02/03 09:07:43;;;;;;;1.63;1.50;;;4.90;99.90;;;;;;5091275;28;20234;-68
2023/02/03 09:10:11;;;;;;;1.90;0.98;;;4.80;99.90;;;;;;5089933;28;20195;-68
2023/02/03 09:12:38;;;;;;;1.30;1.20;;;4.90;99.90;;;;;;5091204;28;20204;-68
2023/02/03 09:15:05;;;;;;;1.50;1.05;;;5.00;99.90;;;;;;5091360;28;20200;-68
2023/02/03 09:17:32;;;;;;;2.47;1.40;;;5.10;99.90;;;;;;5091384;28;20675;-68
2023/02/03 09:19:59;;;;;;;2.92;1.08;;;5.10;99.90;;;;;;5090843;28;20196;-68
2023/02/03 09:22:26;;;;;;;1.30;1.10;;;5.20;99.90;;;;;;5090935;28;20211;-68
2023/02/03 09:24:52;;;;;;;1.30;1.20;;;5.70;99.90;;;;;;5091312;28;20199;-68
2023/02/03 09:27:20;;;;;;;5.13;1.73;;;6.10;99.90;;;;;;5090143;28;20691;-68
2023/02/03 09:29:47;;;;;;;1.45;1.30;;;6.30;99.90;;;;;;5091552;28;20200;-69
2023/02/03 09:32:14;;;;;;;1.40;1.27;;;6.30;99.90;;;;;;5091152;28;20609;-68
2023/02/03 09:34:41;;;;;;;1.45;1.33;;;6.30;99.90;;;;;;5090993;28;20204;-68
2023/02/03 09:37:07;;;;;;;1.63;1.23;;;6.20;99.90;;;;;;5091007;28;20243;-68
2023/02/03 09:39:34;;;;;;;1.80;1.55;;;5.90;99.90;;;;;;5089801;28;20571;-68
2023/02/03 09:42:13;;;;;;;1.10;1.00;;;5.80;99.90;;;;;;5090715;28;20206;-68
2023/02/03 09:44:47;;;;;;;2.25;1.38;;;5.80;99.90;;;;;;5090643;28;20572;-68
2023/02/03 09:47:18;;;;;;;1.75;1.27;;;5.70;99.90;;;;;;5090384;28;20235;-68
2023/02/03 09:49:50;;;;;;;1.08;0.98;;;5.70;99.90;;;;;;5089881;28;20200;-68
2023/02/03 09:52:19;;;;;;;1.23;1.13;;;5.60;99.90;;;;;;5089963;28;20340;-68
2023/02/03 09:54:51;;;;;;;1.83;1.60;;;5.60;99.90;;;;;;5090231;28;20225;-68
2023/02/03 09:57:21;;;;;;;1.17;1.00;;;5.70;99.90;;;;;;5090659;28;20234;-68
2023/02/03 09:59:50;;;;;;;3.25;1.30;;;5.70;99.90;;;;;;5089966;28;20207;-68
2023/02/03 10:02:32;;;;;;;3.22;1.17;;;5.80;99.90;;;;;;5089713;28;20206;-68
2023/02/03 10:05:06;;;;;;;1.80;0.93;;;5.90;99.90;;;;;;5090440;28;20666;-68
2023/02/03 10:07:42;;;;;;;1.48;1.38;;;6.00;99.90;;;;;;5090323;28;20234;-68
2023/02/03 10:10:17;;;;;;;3.78;1.35;;;6.10;99.90;;;;;;5089817;28;20226;-68
2023/02/03 10:12:54;;;;;;;1.75;1.17;;;6.10;99.90;;;;;;5090674;28;20199;-68
2023/02/03 10:15:42;;;;;;;2.92;1.70;;;6.20;99.90;;;;;;5089778;28;20564;-68
2023/02/03 10:18:13;;;;;;;2.10;1.35;;;6.30;99.90;;;;;;5079338;28;20207;-68
2023/02/03 10:20:46;;;;;;;1.17;1.05;;;6.30;99.90;;;;;;5090118;28;20730;-68
2023/02/03 10:23:16;;;;;;;1.25;1.00;;;6.40;99.90;;;;;;5090185;28;20328;-68
2023/02/03 10:25:46;;;;;;;1.00;0.90;;;6.40;99.90;;;;;;5089857;28;20226;-68
2023/02/03 10:28:18;;;;;;;2.55;1.20;;;6.40;99.90;;;;;;5089459;28;20224;-68
2023/02/03 10:30:49;;;;;;;1.17;1.05;;;6.20;99.90;;;;;;5090344;28;20200;-68
2023/02/03 10:33:17;;;;;;;1.25;1.13;;;6.20;99.90;;;;;;5089694;28;20211;-68
2023/02/03 10:35:50;;;;;;;0.90;0.80;;;6.30;99.90;;;;;;5090095;28;20699;-68
2023/02/03 10:38:30;;;;;;;10.02;1.85;;;6.30;99.90;;;;;;5092073;28;20202;-68
2023/02/03 10:40:57;;;;;;;1.17;1.00;;;6.30;99.90;;;;;;5093925;28;20210;-68
2023/02/03 10:46:19;;;;;;;1.33;1.02;;;6.50;99.90;;;;;;5068667;28;20325;-68
2023/02/03 10:48:46;;;;;;;1.40;1.00;;;6.60;99.90;;;;;;5093619;28;20610;-68
2023/02/03 10:51:21;;;;;;;1.60;0.98;;;6.50;99.90;;;;;;5093896;28;20199;-68
2023/02/03 10:53:51;;;;;;;1.50;1.25;;;6.40;99.90;;;;;;5091982;28;20270;-68
2023/02/03 10:56:21;;;;;;;1.33;1.00;;;6.50;99.90;;;;;;5093606;28;20222;-68
2023/02/03 10:58:50;;;;;;;1.92;1.08;;;6.40;99.90;;;;;;5093102;28;20192;-68
2023/02/03 11:01:21;;;;;;;1.10;1.00;;;6.80;99.90;;;;;;5093237;28;20670;-68
2023/02/03 11:03:58;;;;;;;1.75;1.38;;;7.80;99.90;;;;;;5093215;28;20670;-69
2023/02/03 11:06:26;;;;;;;0.93;0.82;;;8.10;99.90;;;;;;5090776;28;20876;-68
2023/02/03 11:08:53;;;;;;;1.05;0.95;;;7.90;99.90;;;;;;5092676;28;20192;-68
2023/02/03 11:11:25;;;;;;;1.02;0.93;;;7.70;99.90;;;;;;5092717;28;20192;-68
2023/02/03 11:13:54;;;;;;;2.00;1.40;;;7.70;99.90;;;;;;5093248;28;20756;-69
2023/02/03 11:16:24;;;;;;;1.10;1.00;;;7.70;99.90;;;;;;5092692;28;20223;-68
2023/02/03 11:18:59;;;;;;;1.20;1.00;;;7.70;99.90;;;;;;5092605;28;20567;-68
2023/02/03 11:21:29;;;;;;;0.82;0.80;;;7.40;99.90;;;;;;5092627;28;20226;-68
2023/02/03 11:24:06;;;;;;;1.48;1.10;;;7.30;99.90;;;;;;5093337;28;20195;-69
2023/02/03 11:26:35;;;;;;;1.15;0.95;;;7.20;99.90;;;;;;5089832;28;20525;-68
2023/02/03 11:29:05;;;;;;;1.27;1.00;;;7.00;99.90;;;;;;5092016;28;20196;-68
2023/02/03 11:31:35;;;;;;;2.33;0.95;;;6.90;99.90;;;;;;5092439;28;20195;-69
2023/02/03 11:34:05;;;;;;;0.80;0.70;;;7.00;99.90;;;;;;5089931;28;20656;-69
2023/02/03 11:36:34;;;;;;;1.15;0.90;;;6.90;99.90;;;;;;5092189;28;20212;-68
2023/02/03 11:39:23;;;;;;;1.00;0.90;;;6.90;99.90;;;;;;5092023;28;20516;-68
2023/02/03 11:41:50;;;;;;;1.00;0.80;;;6.90;99.90;;;;;;5091699;28;20192;-68
2023/02/03 11:44:20;;;;;;;1.00;0.80;;;6.80;99.90;;;;;;5091962;28;20200;-68
2023/02/03 11:46:51;;;;;;;1.00;0.90;;;6.80;99.90;;;;;;5091934;28;20215;-68
2023/02/03 11:49:44;;;;;;;1.00;0.80;;;6.80;99.90;;;;;;5090610;28;20211;-69
2023/02/03 11:52:28;;;;;;;0.90;0.70;;;6.80;99.90;;;;;;5092153;28;20252;-69
2023/02/03 11:55:03;;;;;;;1.45;0.80;;;6.80;99.90;;;;;;5091046;28;20192;-68
2023/02/03 11:57:38;;;;;;;1.23;0.90;;;6.80;99.90;;;;;;5091820;28;20211;-69
2023/02/03 12:00:16;;;;;;;0.90;0.80;;;6.80;99.90;;;;;;5091411;28;20210;-69
2023/02/03 12:03:17;;;;;;;0.90;0.75;;;6.80;99.90;;;;;;5091784;28;20596;-68
2023/02/03 12:06:01;;;;;;;0.80;0.70;;;6.80;99.90;;;;;;5091399;28;20211;-69
2023/02/03 12:08:45;;;;;;;2.08;1.02;;;6.90;99.90;;;;;;5091107;28;20262;-68
2023/02/03 12:11:23;;;;;;;1.35;0.90;;;6.90;99.90;;;;;;5091619;28;20574;-68
2023/02/03 12:14:08;;;;;;;0.95;0.85;;;6.80;99.90;;;;;;5092154;28;20278;-69
2023/02/03 12:17:00;;;;;;;1.00;0.85;;;6.80;99.90;;;;;;5090973;28;20769;-68
2023/02/03 12:19:38;;;;;;;4.63;1.55;;;6.80;99.90;;;;;;5061363;28;20196;-68
2023/02/03 12:22:11;;;;;;;0.80;0.70;;;6.80;99.90;;;;;;5091470;28;20210;-69
2023/02/03 12:24:50;;;;;;;1.00;0.88;;;6.90;99.90;;;;;;5090895;28;21536;-68
2023/02/03 12:27:27;;;;;;;0.80;0.70;;;6.90;99.90;;;;;;5091236;28;20307;-69
2023/02/03 12:29:58;;;;;;;1.00;0.90;;;6.90;99.90;;;;;;5090793;28;20195;-69
2023/02/03 12:32:34;;;;;;;0.80;0.70;;;7.00;99.90;;;;;;5088418;28;20211;-69
2023/02/03 12:35:13;;;;;;;2.05;1.00;;;7.10;99.90;;;;;;5091600;28;20199;-69
2023/02/03 12:37:46;;;;;;;1.55;0.90;;;7.10;99.90;;;;;;5090543;28;20659;-69
2023/02/03 12:40:18;;;;;;;0.93;0.73;;;7.10;99.90;;;;;;5090683;28;20574;-69
2023/02/03 12:42:51;;;;;;;1.35;1.08;;;7.20;99.90;;;;;;5090758;28;20535;-69
2023/02/03 12:45:22;;;;;;;0.90;0.80;;;7.10;99.90;;;;;;5091335;28;20204;-69
2023/02/03 12:47:53;;;;;;;1.15;0.70;;;7.00;99.90;;;;;;5090796;28;20698;-69
2023/02/03 12:50:29;;;;;;;0.80;0.80;;;7.00;99.90;;;;;;5090374;28;20188;-69
2023/02/03 12:53:00;;;;;;;1.08;0.80;;;7.00;99.90;;;;;;5091103;28;20543;-69
2023/02/03 12:55:34;;;;;;;2.00;1.08;;;6.90;99.90;;;;;;5089628;28;20211;-69
2023/02/03 12:58:05;;;;;;;1.17;1.08;;;6.90;99.90;;;;;;5091025;28;20188;-69
2023/02/03 13:00:40;;;;;;;1.00;0.90;;;6.80;99.90;;;;;;5089296;28;20191;-68
2023/02/03 13:03:15;;;;;;;1.05;0.95;;;6.80;99.90;;;;;;5090772;28;20576;-69
2023/02/03 13:05:48;;;;;;;1.00;0.80;;;6.80;99.90;;;;;;5090320;28;20211;-69
2023/02/03 13:08:25;;;;;;;0.90;0.80;;;6.80;99.90;;;;;;5089982;28;20226;-68
2023/02/03 13:10:56;;;;;;;0.80;0.73;;;6.80;99.90;;;;;;5090361;28;20206;-69
2023/02/03 13:13:32;;;;;;;1.17;0.95;;;6.80;99.90;;;;;;5090228;28;20199;-68
2023/02/03 13:16:02;;;;;;;0.95;0.80;;;6.90;99.90;;;;;;5090350;28;20219;-69
2023/02/03 13:18:33;;;;;;;0.85;0.80;;;6.90;99.90;;;;;;5089714;28;20203;-69